createdAt,value
2023-04-02T00:01:01.368Z,2.30
2023-04-02T00:03:44.439Z,2.72
2023-04-02T00:06:30.514Z,2.58
2023-04-02T00:09:20.430Z,2.90
2023-04-02T00:11:50.159Z,3.85
2023-04-02T00:14:33.637Z,4.63
2023-04-02T00:17:04.199Z,4.72
2023-04-02T00:19:37.483Z,3.40
2023-04-02T00:22:09.678Z,5.10
2023-04-02T00:24:39.093Z,6.47
2023-04-02T00:27:11.917Z,2.47
2023-04-02T00:29:50.641Z,3.92
2023-04-02T00:32:26.445Z,4.97
2023-04-02T00:34:55.578Z,3.95
2023-04-02T00:37:28.317Z,3.90
2023-04-02T00:40:02.245Z,5.68
2023-04-02T00:42:34.794Z,4.63
2023-04-02T00:45:03.260Z,4.72
2023-04-02T00:47:38.339Z,3.22
2023-04-02T00:50:19.384Z,3.13
2023-04-02T00:52:50.998Z,3.35
2023-04-02T00:55:31.868Z,2.33
2023-04-02T00:58:01.342Z,3.17
2023-04-02T01:00:29.310Z,3.05
2023-04-02T01:03:13.191Z,4.93
2023-04-02T01:05:42.578Z,4.22
2023-04-02T01:08:17.641Z,3.50
2023-04-02T01:10:54.023Z,4.13
2023-04-02T01:13:41.974Z,3.85
2023-04-02T01:16:17.427Z,3.85
2023-04-02T01:18:51.023Z,2.85
2023-04-02T01:21:54.268Z,3.00
2023-04-02T01:24:26.537Z,3.72
2023-04-02T01:27:04.736Z,3.80
2023-04-02T01:29:39.567Z,3.92
2023-04-02T01:32:14.021Z,3.85
2023-04-02T01:34:44.744Z,4.32
2023-04-02T01:37:23.397Z,4.18
2023-04-02T01:40:06.450Z,2.65
2023-04-02T01:42:36.660Z,3.80
2023-04-02T01:45:12.305Z,4.28
2023-04-02T01:47:40.669Z,3.42
2023-04-02T01:50:32.025Z,4.07
2023-04-02T01:53:07.245Z,3.38
2023-04-02T01:55:39.042Z,3.70
2023-04-02T01:58:08.903Z,3.67
2023-04-02T02:00:43.734Z,3.97
2023-04-02T02:03:13.017Z,2.80
2023-04-02T02:05:41.442Z,3.22
2023-04-02T02:08:40.830Z,3.22
2023-04-02T02:11:16.293Z,7.28
2023-04-02T02:14:12.039Z,3.97
2023-04-02T02:16:41.972Z,4.90
2023-04-02T02:19:38.559Z,2.97
2023-04-02T02:22:13.336Z,5.60
2023-04-02T02:24:42.181Z,3.08
2023-04-02T02:27:25.598Z,2.90
2023-04-02T02:30:10.907Z,3.70
2023-04-02T02:32:48.433Z,2.97
2023-04-02T02:35:27.221Z,4.40
2023-04-02T02:38:20.169Z,3.15
2023-04-02T02:40:52.802Z,3.33
2023-04-02T02:43:21.083Z,4.65
2023-04-02T02:45:49.911Z,2.55
2023-04-02T02:48:21.696Z,3.55
2023-04-02T02:50:51.167Z,4.18
2023-04-02T02:53:24.057Z,5.45
2023-04-02T02:56:00.404Z,3.90
2023-04-02T02:58:34.573Z,4.05
2023-04-02T03:01:16.677Z,7.35
2023-04-02T03:03:47.442Z,3.20
2023-04-02T03:06:17.247Z,2.80
2023-04-02T03:08:52.263Z,4.35
2023-04-02T03:11:41.001Z,6.78
2023-04-02T03:14:39.089Z,4.18
2023-04-02T03:17:14.924Z,3.75
2023-04-02T03:20:25.941Z,3.75
2023-04-02T03:23:05.899Z,4.90
2023-04-02T03:25:53.224Z,4.40
2023-04-02T03:28:25.805Z,3.10
2023-04-02T03:31:24.240Z,5.40
2023-04-02T03:34:25.636Z,3.85
2023-04-02T03:37:00.154Z,4.45
2023-04-02T03:39:34.526Z,5.37
2023-04-02T03:42:09.287Z,5.63
2023-04-02T03:44:47.047Z,5.80
2023-04-02T03:47:23.717Z,5.60
2023-04-02T03:50:06.304Z,3.40
2023-04-02T03:52:37.526Z,4.85
2023-04-02T03:55:17.970Z,4.53
2023-04-02T03:58:00.800Z,6.13
2023-04-02T04:00:39.530Z,5.75
2023-04-02T04:03:18.531Z,15.32
2023-04-02T04:05:58.643Z,11.10
2023-04-02T04:08:34.622Z,10.63
2023-04-02T04:11:10.610Z,12.52
2023-04-02T04:13:51.258Z,9.60
2023-04-02T04:16:24.574Z,8.95
2023-04-02T04:19:03.724Z,5.57
2023-04-02T04:21:37.830Z,10.00
2023-04-02T04:24:22.605Z,11.18
2023-04-02T04:27:04.553Z,9.13
2023-04-02T04:30:03.988Z,5.28
2023-04-02T04:32:39.062Z,8.68
2023-04-02T04:35:37.717Z,7.05
2023-04-02T04:38:16.918Z,4.28
2023-04-02T04:40:54.460Z,5.13
2023-04-02T04:43:57.038Z,5.22
2023-04-02T04:46:40.276Z,6.03
2023-04-02T04:49:19.748Z,5.97
2023-04-02T04:51:55.885Z,7.43
2023-04-02T04:54:28.959Z,4.65
2023-04-02T04:57:02.725Z,14.00
2023-04-02T04:59:42.762Z,9.93
2023-04-02T05:02:17.462Z,9.77
2023-04-02T05:04:51.000Z,12.77
2023-04-02T05:07:28.264Z,14.20
2023-04-02T05:10:09.483Z,10.90
2023-04-02T05:13:01.898Z,15.30
2023-04-02T05:15:40.024Z,9.00
2023-04-02T05:18:18.317Z,16.73
2023-04-02T05:21:16.579Z,13.45
2023-04-02T05:23:51.173Z,30.42
2023-04-02T05:26:25.850Z,21.58
2023-04-02T05:29:01.346Z,24.58
2023-04-02T05:31:56.664Z,17.50
2023-04-02T05:34:32.438Z,40.95
2023-04-02T05:37:00.502Z,21.05
2023-04-02T05:39:29.442Z,61.15
2023-04-02T05:42:04.954Z,39.15
2023-04-02T05:45:21.559Z,22.48
2023-04-02T05:47:53.956Z,7.88
2023-04-02T05:50:43.110Z,8.88
2023-04-02T05:53:24.970Z,7.15
2023-04-02T05:56:20.799Z,8.68
2023-04-02T05:59:00.919Z,9.93
2023-04-02T06:01:51.337Z,5.53
2023-04-02T06:04:31.062Z,12.40
2023-04-02T06:07:14.677Z,9.75
2023-04-02T06:10:05.014Z,7.38
2023-04-02T06:13:00.266Z,16.98
2023-04-02T06:15:31.640Z,10.80
2023-04-02T06:18:19.187Z,7.80
2023-04-02T06:20:48.706Z,9.90
2023-04-02T06:23:45.338Z,38.78
2023-04-02T06:26:31.400Z,8.93
2023-04-02T06:29:39.631Z,7.38
2023-04-02T06:32:12.346Z,26.10
2023-04-02T06:34:43.040Z,14.10
2023-04-02T06:39:52.967Z,19.67
2023-04-02T06:42:38.602Z,14.32
2023-04-02T06:45:35.231Z,9.25
2023-04-02T06:48:19.549Z,15.27
2023-04-02T06:51:10.764Z,26.08
2023-04-02T06:53:44.674Z,29.27
2023-04-02T06:58:50.339Z,12.05
2023-04-02T07:01:23.280Z,12.68
2023-04-02T07:03:52.181Z,20.30
2023-04-02T07:06:28.138Z,10.13
2023-04-02T07:08:59.543Z,22.25
2023-04-02T07:11:27.840Z,19.50
2023-04-02T07:13:59.068Z,9.00
2023-04-02T07:16:29.437Z,11.55
2023-04-02T07:18:58.906Z,18.52
2023-04-02T07:21:28.658Z,6.78
2023-04-02T07:23:57.488Z,13.27
2023-04-02T07:26:27.958Z,18.65
2023-04-02T07:28:56.530Z,23.90
2023-04-02T07:31:27.191Z,11.70
2023-04-02T07:33:59.691Z,11.77
2023-04-02T07:36:29.216Z,7.45
2023-04-02T07:38:57.294Z,14.88
2023-04-02T07:41:24.980Z,11.82
2023-04-02T07:43:52.756Z,9.20
2023-04-02T07:46:20.457Z,8.55
2023-04-02T07:48:48.390Z,12.23
2023-04-02T07:51:24.746Z,7.72
2023-04-02T07:53:56.390Z,7.20
2023-04-02T07:56:25.403Z,8.85
2023-04-02T07:58:53.143Z,7.32
2023-04-02T08:01:26.890Z,8.25
2023-04-02T08:03:56.651Z,7.28
2023-04-02T08:06:25.715Z,15.18
2023-04-02T08:08:53.453Z,6.72
2023-04-02T08:11:21.378Z,11.43
2023-04-02T08:13:49.734Z,8.82
2023-04-02T08:16:18.629Z,16.23
2023-04-02T08:18:47.675Z,11.85
2023-04-02T08:21:16.819Z,12.93
2023-04-02T08:23:44.875Z,5.82
2023-04-02T08:26:18.641Z,9.60
2023-04-02T08:28:47.017Z,12.95
2023-04-02T08:31:15.025Z,11.02
2023-04-02T08:33:43.128Z,6.57
2023-04-02T08:36:18.504Z,9.48
2023-04-02T08:38:46.206Z,7.90
2023-04-02T08:41:27.818Z,8.70
2023-04-02T08:44:27.344Z,10.45
2023-04-02T08:47:04.099Z,10.82
2023-04-02T08:49:37.826Z,9.48
2023-04-02T08:52:05.892Z,15.98
2023-04-02T08:54:38.090Z,8.55
2023-04-02T08:57:27.401Z,10.77
2023-04-02T09:00:06.166Z,9.13
2023-04-02T09:02:43.595Z,8.07
2023-04-02T09:05:19.379Z,8.65
2023-04-02T09:07:48.909Z,11.63
2023-04-02T09:10:17.918Z,8.70
2023-04-02T09:12:54.381Z,7.57
2023-04-02T09:15:35.545Z,7.43
2023-04-02T09:18:19.115Z,7.43
2023-04-02T09:20:50.472Z,8.82
2023-04-02T09:23:22.264Z,8.20
2023-04-02T09:26:03.604Z,10.27
2023-04-02T09:28:32.440Z,10.13
2023-04-02T09:31:09.238Z,6.75
2023-04-02T09:33:42.741Z,7.28
2023-04-02T09:36:26.010Z,6.43
2023-04-02T09:39:07.018Z,7.10
2023-04-02T09:41:36.989Z,9.45
2023-04-02T09:44:28.384Z,7.38
2023-04-02T09:47:06.095Z,8.50
2023-04-02T09:49:36.777Z,7.53
2023-04-02T09:52:27.454Z,6.70
2023-04-02T09:55:16.726Z,8.90
2023-04-02T09:57:46.629Z,8.07
2023-04-02T10:00:25.995Z,9.32
2023-04-02T10:03:03.676Z,9.85
2023-04-02T10:05:40.587Z,10.35
2023-04-02T10:08:19.078Z,7.93
2023-04-02T10:10:53.043Z,8.80
2023-04-02T10:13:46.301Z,10.00
2023-04-02T10:16:20.630Z,8.45
2023-04-02T10:18:52.107Z,9.43
2023-04-02T10:21:36.207Z,7.88
2023-04-02T10:24:12.691Z,9.43
2023-04-02T10:26:55.407Z,7.85
2023-04-02T10:29:31.887Z,8.20
2023-04-02T10:32:12.441Z,7.63
2023-04-02T10:34:46.112Z,9.18
2023-04-02T10:37:54.464Z,9.15
2023-04-02T10:40:42.248Z,6.70
2023-04-02T10:43:33.278Z,6.65
2023-04-02T10:46:09.042Z,7.35
2023-04-02T10:49:23.639Z,9.57
2023-04-02T10:52:07.673Z,6.93
2023-04-02T10:54:57.950Z,7.63
2023-04-02T10:57:40.716Z,6.53
2023-04-02T11:00:11.962Z,6.55
2023-04-02T11:02:54.898Z,4.93
2023-04-02T11:05:40.267Z,5.93
2023-04-02T11:08:18.721Z,7.15
2023-04-02T11:11:09.502Z,5.68
2023-04-02T11:14:00.520Z,6.65
2023-04-02T11:16:28.664Z,8.73
2023-04-02T11:19:14.630Z,9.15
2023-04-02T11:22:02.697Z,5.05
2023-04-02T11:24:42.568Z,6.15
2023-04-02T11:27:10.026Z,5.05
2023-04-02T11:30:01.343Z,7.60
2023-04-02T11:32:42.749Z,6.18
2023-04-02T11:35:32.212Z,9.40
2023-04-02T11:38:23.757Z,6.85
2023-04-02T11:40:55.214Z,9.00
2023-04-02T11:43:35.852Z,6.63
2023-04-02T11:46:16.060Z,5.93
2023-04-02T11:48:46.753Z,7.88
2023-04-02T11:51:21.746Z,7.82
2023-04-02T11:53:51.766Z,7.22
2023-04-02T11:56:48.208Z,6.03
2023-04-02T11:59:39.218Z,5.15
2023-04-02T12:02:19.939Z,5.93
2023-04-02T12:04:56.616Z,5.70
2023-04-02T12:07:55.884Z,5.13
2023-04-02T12:10:32.142Z,8.00
2023-04-02T12:13:00.988Z,6.05
2023-04-02T12:15:45.326Z,5.38
2023-04-02T12:18:14.926Z,8.93
2023-04-02T12:20:51.657Z,6.38
2023-04-02T12:23:31.821Z,5.03
2023-04-02T12:26:10.595Z,5.22
2023-04-02T12:28:38.320Z,6.63
2023-04-02T12:31:17.486Z,6.28
2023-04-02T12:33:45.841Z,6.45
2023-04-02T12:36:14.650Z,6.07
2023-04-02T12:38:54.541Z,7.53
2023-04-02T12:41:24.085Z,5.47
2023-04-02T12:43:59.071Z,4.65
2023-04-02T12:46:27.633Z,3.10
2023-04-02T12:49:04.251Z,4.97
2023-04-02T12:51:32.314Z,4.63
2023-04-02T12:54:00.025Z,5.80
2023-04-02T12:56:27.697Z,8.63
2023-04-02T12:58:58.569Z,7.72
2023-04-02T13:01:31.904Z,5.90
2023-04-02T13:04:03.434Z,4.70
2023-04-02T13:06:32.025Z,5.05
2023-04-02T13:09:07.016Z,4.72
2023-04-02T13:11:43.525Z,6.28
2023-04-02T13:14:20.353Z,6.10
2023-04-02T13:16:55.841Z,5.50
2023-04-02T13:19:30.274Z,6.63
2023-04-02T13:22:03.428Z,5.65
2023-04-02T13:24:34.677Z,3.97
2023-04-02T13:27:03.360Z,4.57
2023-04-02T13:29:35.968Z,5.57
2023-04-02T13:32:06.882Z,5.10
2023-04-02T13:37:05.777Z,6.20
2023-04-02T13:39:33.652Z,5.72
2023-04-02T13:42:03.769Z,6.68
2023-04-02T13:44:33.838Z,11.38
2023-04-02T13:47:01.811Z,8.55
2023-04-02T13:49:29.770Z,7.00
2023-04-02T13:52:03.101Z,12.32
2023-04-02T13:54:48.828Z,16.25
2023-04-02T13:57:16.924Z,6.40
2023-04-02T13:59:44.577Z,9.98
2023-04-02T14:02:25.794Z,7.20
2023-04-02T14:05:29.557Z,6.25
2023-04-02T14:08:15.566Z,6.32
2023-04-02T14:11:17.479Z,6.50
